sensor_id;sensor_type;location;lat;lon;timestamp;P1;durP1;ratioP1;P2;durP2;ratioP2
62709;SDS011;48770;51.624;5.886;2023-07-22T00:01:47;6.32;;;4.28;;
62709;SDS011;48770;51.624;5.886;2023-07-22T00:04:13;5.95;;;4.07;;
62709;SDS011;48770;51.624;5.886;2023-07-22T00:06:38;4.85;;;4.22;;
62709;SDS011;48770;51.624;5.886;2023-07-22T00:09:04;5.10;;;4.60;;
62709;SDS011;48770;51.624;5.886;2023-07-22T00:11:29;4.32;;;3.70;;
62709;SDS011;48770;51.624;5.886;2023-07-22T00:13:54;4.32;;;3.92;;
62709;SDS011;48770;51.624;5.886;2023-07-22T00:16:20;4.60;;;4.20;;
62709;SDS011;48770;51.624;5.886;2023-07-22T00:18:45;5.22;;;4.20;;
62709;SDS011;48770;51.624;5.886;2023-07-22T00:21:10;5.22;;;4.53;;
62709;SDS011;48770;51.624;5.886;2023-07-22T00:23:36;4.47;;;4.10;;
62709;SDS011;48770;51.624;5.886;2023-07-22T00:26:01;5.97;;;4.63;;
62709;SDS011;48770;51.624;5.886;2023-07-22T00:28:26;4.63;;;4.22;;
62709;SDS011;48770;51.624;5.886;2023-07-22T00:30:51;4.47;;;4.07;;
62709;SDS011;48770;51.624;5.886;2023-07-22T00:33:18;6.38;;;4.03;;
62709;SDS011;48770;51.624;5.886;2023-07-22T00:35:47;6.10;;;4.15;;
62709;SDS011;48770;51.624;5.886;2023-07-22T00:38:15;4.95;;;4.13;;
62709;SDS011;48770;51.624;5.886;2023-07-22T00:40:40;4.60;;;4.10;;
62709;SDS011;48770;51.624;5.886;2023-07-22T00:43:05;6.33;;;4.63;;
62709;SDS011;48770;51.624;5.886;2023-07-22T00:45:32;4.75;;;4.35;;
62709;SDS011;48770;51.624;5.886;2023-07-22T00:47:57;5.68;;;4.50;;
62709;SDS011;48770;51.624;5.886;2023-07-22T00:50:23;5.03;;;4.07;;
62709;SDS011;48770;51.624;5.886;2023-07-22T00:52:49;4.82;;;4.13;;
62709;SDS011;48770;51.624;5.886;2023-07-22T00:55:14;4.00;;;3.60;;
62709;SDS011;48770;51.624;5.886;2023-07-22T00:57:39;4.40;;;4.00;;
62709;SDS011;48770;51.624;5.886;2023-07-22T01:00:05;7.43;;;4.50;;
62709;SDS011;48770;51.624;5.886;2023-07-22T01:02:31;5.72;;;4.38;;
62709;SDS011;48770;51.624;5.886;2023-07-22T01:04:56;4.53;;;4.03;;
62709;SDS011;48770;51.624;5.886;2023-07-22T01:07:22;4.93;;;4.45;;
62709;SDS011;48770;51.624;5.886;2023-07-22T01:09:48;5.00;;;4.50;;
62709;SDS011;48770;51.624;5.886;2023-07-22T01:12:13;4.57;;;4.05;;
62709;SDS011;48770;51.624;5.886;2023-07-22T01:14:40;4.38;;;3.97;;
62709;SDS011;48770;51.624;5.886;2023-07-22T01:17:07;4.93;;;4.40;;
62709;SDS011;48770;51.624;5.886;2023-07-22T01:19:34;4.95;;;4.40;;
62709;SDS011;48770;51.624;5.886;2023-07-22T01:22:00;4.57;;;4.18;;
62709;SDS011;48770;51.624;5.886;2023-07-22T01:24:31;4.88;;;4.38;;
62709;SDS011;48770;51.624;5.886;2023-07-22T01:26:57;4.65;;;4.25;;
62709;SDS011;48770;51.624;5.886;2023-07-22T01:29:23;6.18;;;4.32;;
62709;SDS011;48770;51.624;5.886;2023-07-22T01:31:50;5.15;;;4.45;;
62709;SDS011;48770;51.624;5.886;2023-07-22T01:34:17;4.60;;;3.92;;
62709;SDS011;48770;51.624;5.886;2023-07-22T01:36:43;5.72;;;4.78;;
62709;SDS011;48770;51.624;5.886;2023-07-22T01:39:09;6.25;;;4.85;;
62709;SDS011;48770;51.624;5.886;2023-07-22T01:41:36;5.57;;;4.75;;
62709;SDS011;48770;51.624;5.886;2023-07-22T01:44:01;5.50;;;4.57;;
62709;SDS011;48770;51.624;5.886;2023-07-22T01:46:27;4.80;;;4.32;;
62709;SDS011;48770;51.624;5.886;2023-07-22T01:48:52;5.20;;;4.70;;
62709;SDS011;48770;51.624;5.886;2023-07-22T01:51:18;4.85;;;4.32;;
62709;SDS011;48770;51.624;5.886;2023-07-22T01:53:43;6.47;;;5.28;;
62709;SDS011;48770;51.624;5.886;2023-07-22T01:56:09;5.75;;;5.18;;
62709;SDS011;48770;51.624;5.886;2023-07-22T01:58:34;4.80;;;4.33;;
62709;SDS011;48770;51.624;5.886;2023-07-22T02:00:59;6.13;;;4.73;;
62709;SDS011;48770;51.624;5.886;2023-07-22T02:03:25;5.40;;;4.57;;
62709;SDS011;48770;51.624;5.886;2023-07-22T02:05:50;5.22;;;4.72;;
62709;SDS011;48770;51.624;5.886;2023-07-22T02:08:16;5.10;;;4.60;;
62709;SDS011;48770;51.624;5.886;2023-07-22T02:10:41;5.82;;;5.00;;
62709;SDS011;48770;51.624;5.886;2023-07-22T02:13:06;5.00;;;4.47;;
62709;SDS011;48770;51.624;5.886;2023-07-22T02:15:32;5.40;;;4.90;;
62709;SDS011;48770;51.624;5.886;2023-07-22T02:17:57;5.30;;;4.75;;
62709;SDS011;48770;51.624;5.886;2023-07-22T02:20:23;5.45;;;4.72;;
62709;SDS011;48770;51.624;5.886;2023-07-22T02:22:49;5.32;;;4.68;;
62709;SDS011;48770;51.624;5.886;2023-07-22T02:25:14;6.50;;;5.18;;
62709;SDS011;48770;51.624;5.886;2023-07-22T02:27:40;5.20;;;4.68;;
62709;SDS011;48770;51.624;5.886;2023-07-22T02:30:06;5.50;;;5.00;;
62709;SDS011;48770;51.624;5.886;2023-07-22T02:32:35;4.85;;;4.35;;
62709;SDS011;48770;51.624;5.886;2023-07-22T02:35:01;5.50;;;5.00;;
62709;SDS011;48770;51.624;5.886;2023-07-22T02:37:27;7.75;;;4.85;;
62709;SDS011;48770;51.624;5.886;2023-07-22T02:39:54;5.47;;;4.97;;
62709;SDS011;48770;51.624;5.886;2023-07-22T02:42:20;5.07;;;4.68;;
62709;SDS011;48770;51.624;5.886;2023-07-22T02:44:45;6.65;;;4.80;;
62709;SDS011;48770;51.624;5.886;2023-07-22T02:47:10;5.83;;;5.13;;
62709;SDS011;48770;51.624;5.886;2023-07-22T02:49:36;5.97;;;5.00;;
62709;SDS011;48770;51.624;5.886;2023-07-22T02:52:01;6.10;;;5.50;;
62709;SDS011;48770;51.624;5.886;2023-07-22T02:54:26;6.57;;;5.38;;
62709;SDS011;48770;51.624;5.886;2023-07-22T02:56:51;5.63;;;5.13;;
62709;SDS011;48770;51.624;5.886;2023-07-22T02:59:17;5.75;;;5.05;;
62709;SDS011;48770;51.624;5.886;2023-07-22T03:01:42;5.47;;;4.97;;
62709;SDS011;48770;51.624;5.886;2023-07-22T03:04:07;5.05;;;4.65;;
62709;SDS011;48770;51.624;5.886;2023-07-22T03:06:33;6.15;;;5.55;;
62709;SDS011;48770;51.624;5.886;2023-07-22T03:08:58;5.53;;;4.97;;
62709;SDS011;48770;51.624;5.886;2023-07-22T03:11:23;5.97;;;5.38;;
62709;SDS011;48770;51.624;5.886;2023-07-22T03:13:50;5.57;;;4.88;;
62709;SDS011;48770;51.624;5.886;2023-07-22T03:16:15;4.97;;;4.47;;
62709;SDS011;48770;51.624;5.886;2023-07-22T03:18:41;6.13;;;5.28;;
62709;SDS011;48770;51.624;5.886;2023-07-22T03:21:08;6.57;;;5.28;;
62709;SDS011;48770;51.624;5.886;2023-07-22T03:23:34;6.38;;;5.00;;
62709;SDS011;48770;51.624;5.886;2023-07-22T03:25:59;5.35;;;4.85;;
62709;SDS011;48770;51.624;5.886;2023-07-22T03:28:25;7.65;;;4.47;;
62709;SDS011;48770;51.624;5.886;2023-07-22T03:30:51;5.38;;;4.88;;
62709;SDS011;48770;51.624;5.886;2023-07-22T03:33:16;6.15;;;5.07;;
62709;SDS011;48770;51.624;5.886;2023-07-22T03:35:41;4.63;;;4.22;;
62709;SDS011;48770;51.624;5.886;2023-07-22T03:38:07;5.03;;;4.53;;
62709;SDS011;48770;51.624;5.886;2023-07-22T03:40:33;5.78;;;4.95;;
62709;SDS011;48770;51.624;5.886;2023-07-22T03:42:58;5.43;;;4.93;;
62709;SDS011;48770;51.624;5.886;2023-07-22T03:45:23;5.57;;;4.97;;
62709;SDS011;48770;51.624;5.886;2023-07-22T03:47:56;6.28;;;5.18;;
62709;SDS011;48770;51.624;5.886;2023-07-22T03:50:23;7.85;;;5.05;;
62709;SDS011;48770;51.624;5.886;2023-07-22T03:52:49;6.85;;;5.05;;
62709;SDS011;48770;51.624;5.886;2023-07-22T03:55:14;6.88;;;5.45;;
62709;SDS011;48770;51.624;5.886;2023-07-22T03:57:39;5.70;;;5.15;;
62709;SDS011;48770;51.624;5.886;2023-07-22T04:00:05;5.75;;;5.07;;
62709;SDS011;48770;51.624;5.886;2023-07-22T04:02:34;5.55;;;4.70;;
62709;SDS011;48770;51.624;5.886;2023-07-22T04:05:00;5.25;;;4.75;;
62709;SDS011;48770;51.624;5.886;2023-07-22T04:07:25;6.53;;;5.35;;
62709;SDS011;48770;51.624;5.886;2023-07-22T04:09:50;6.10;;;5.13;;
62709;SDS011;48770;51.624;5.886;2023-07-22T04:12:16;5.72;;;4.55;;
62709;SDS011;48770;51.624;5.886;2023-07-22T04:14:42;5.47;;;4.97;;
62709;SDS011;48770;51.624;5.886;2023-07-22T04:17:07;5.90;;;5.00;;
62709;SDS011;48770;51.624;5.886;2023-07-22T04:19:33;6.80;;;5.32;;
62709;SDS011;48770;51.624;5.886;2023-07-22T04:21:58;5.97;;;5.38;;
62709;SDS011;48770;51.624;5.886;2023-07-22T04:24:29;5.75;;;5.13;;
62709;SDS011;48770;51.624;5.886;2023-07-22T04:26:55;5.45;;;4.90;;
62709;SDS011;48770;51.624;5.886;2023-07-22T04:29:21;7.32;;;5.10;;
62709;SDS011;48770;51.624;5.886;2023-07-22T04:31:46;6.53;;;5.90;;
62709;SDS011;48770;51.624;5.886;2023-07-22T04:34:11;5.40;;;4.90;;
62709;SDS011;48770;51.624;5.886;2023-07-22T04:36:37;6.13;;;5.18;;
62709;SDS011;48770;51.624;5.886;2023-07-22T04:39:03;5.35;;;4.85;;
62709;SDS011;48770;51.624;5.886;2023-07-22T04:41:30;6.97;;;5.00;;
62709;SDS011;48770;51.624;5.886;2023-07-22T04:43:56;5.95;;;4.65;;
62709;SDS011;48770;51.624;5.886;2023-07-22T04:46:23;5.47;;;4.95;;
62709;SDS011;48770;51.624;5.886;2023-07-22T04:48:49;5.82;;;4.95;;
62709;SDS011;48770;51.624;5.886;2023-07-22T04:51:14;5.50;;;4.90;;
62709;SDS011;48770;51.624;5.886;2023-07-22T04:53:39;6.27;;;4.77;;
62709;SDS011;48770;51.624;5.886;2023-07-22T04:56:05;5.17;;;4.67;;
62709;SDS011;48770;51.624;5.886;2023-07-22T04:58:30;5.20;;;4.53;;
62709;SDS011;48770;51.624;5.886;2023-07-22T05:00:55;6.57;;;4.93;;
62709;SDS011;48770;51.624;5.886;2023-07-22T05:03:22;5.30;;;4.80;;
62709;SDS011;48770;51.624;5.886;2023-07-22T05:05:50;5.70;;;5.10;;
62709;SDS011;48770;51.624;5.886;2023-07-22T05:08:15;4.97;;;4.53;;
62709;SDS011;48770;51.624;5.886;2023-07-22T05:10:40;6.13;;;4.78;;
62709;SDS011;48770;51.624;5.886;2023-07-22T05:13:06;6.20;;;4.88;;
62709;SDS011;48770;51.624;5.886;2023-07-22T05:15:31;6.78;;;5.03;;
62709;SDS011;48770;51.624;5.886;2023-07-22T05:17:56;7.25;;;5.10;;
62709;SDS011;48770;51.624;5.886;2023-07-22T05:20:22;5.60;;;4.80;;
62709;SDS011;48770;51.624;5.886;2023-07-22T05:22:47;6.67;;;5.17;;
62709;SDS011;48770;51.624;5.886;2023-07-22T05:25:13;5.47;;;4.82;;
62709;SDS011;48770;51.624;5.886;2023-07-22T05:27:39;6.78;;;4.60;;
62709;SDS011;48770;51.624;5.886;2023-07-22T05:30:05;5.82;;;4.80;;
62709;SDS011;48770;51.624;5.886;2023-07-22T05:32:31;5.35;;;4.63;;
62709;SDS011;48770;51.624;5.886;2023-07-22T05:34:56;5.55;;;4.82;;
62709;SDS011;48770;51.624;5.886;2023-07-22T05:37:22;7.78;;;5.60;;
62709;SDS011;48770;51.624;5.886;2023-07-22T05:39:50;6.70;;;4.85;;
62709;SDS011;48770;51.624;5.886;2023-07-22T05:42:16;5.53;;;4.88;;
62709;SDS011;48770;51.624;5.886;2023-07-22T05:44:42;6.18;;;4.95;;
62709;SDS011;48770;51.624;5.886;2023-07-22T05:47:08;6.13;;;5.28;;
62709;SDS011;48770;51.624;5.886;2023-07-22T05:49:34;5.88;;;4.90;;
62709;SDS011;48770;51.624;5.886;2023-07-22T05:51:59;5.28;;;4.78;;
62709;SDS011;48770;51.624;5.886;2023-07-22T05:54:24;5.15;;;4.65;;
62709;SDS011;48770;51.624;5.886;2023-07-22T05:56:50;7.15;;;5.18;;
62709;SDS011;48770;51.624;5.886;2023-07-22T05:59:15;7.93;;;5.38;;
62709;SDS011;48770;51.624;5.886;2023-07-22T06:01:41;6.30;;;4.80;;
62709;SDS011;48770;51.624;5.886;2023-07-22T06:04:06;6.60;;;5.73;;
62709;SDS011;48770;51.624;5.886;2023-07-22T06:06:31;6.03;;;5.03;;
62709;SDS011;48770;51.624;5.886;2023-07-22T06:08:57;8.00;;;5.40;;
62709;SDS011;48770;51.624;5.886;2023-07-22T06:11:22;8.88;;;6.10;;
62709;SDS011;48770;51.624;5.886;2023-07-22T06:13:47;6.63;;;5.37;;
62709;SDS011;48770;51.624;5.886;2023-07-22T06:16:13;6.43;;;5.20;;
62709;SDS011;48770;51.624;5.886;2023-07-22T06:18:38;6.17;;;5.17;;
62709;SDS011;48770;51.624;5.886;2023-07-22T06:21:03;5.38;;;4.85;;
62709;SDS011;48770;51.624;5.886;2023-07-22T06:23:29;5.78;;;5.18;;
62709;SDS011;48770;51.624;5.886;2023-07-22T06:25:55;6.97;;;5.70;;
62709;SDS011;48770;51.624;5.886;2023-07-22T06:28:20;6.25;;;5.45;;
62709;SDS011;48770;51.624;5.886;2023-07-22T06:30:45;7.38;;;5.53;;
62709;SDS011;48770;51.624;5.886;2023-07-22T06:33:11;7.53;;;5.60;;
62709;SDS011;48770;51.624;5.886;2023-07-22T06:35:36;9.07;;;5.10;;
62709;SDS011;48770;51.624;5.886;2023-07-22T06:38:01;6.47;;;5.80;;
62709;SDS011;48770;51.624;5.886;2023-07-22T06:40:26;6.33;;;5.23;;
62709;SDS011;48770;51.624;5.886;2023-07-22T06:42:52;8.68;;;5.32;;
62709;SDS011;48770;51.624;5.886;2023-07-22T06:45:18;6.47;;;5.40;;
62709;SDS011;48770;51.624;5.886;2023-07-22T06:47:43;6.72;;;5.55;;
62709;SDS011;48770;51.624;5.886;2023-07-22T06:50:09;9.80;;;6.10;;
62709;SDS011;48770;51.624;5.886;2023-07-22T06:52:34;6.38;;;5.32;;
62709;SDS011;48770;51.624;5.886;2023-07-22T06:55:00;10.68;;;6.18;;
62709;SDS011;48770;51.624;5.886;2023-07-22T06:57:25;6.75;;;5.53;;
62709;SDS011;48770;51.624;5.886;2023-07-22T06:59:51;7.20;;;5.35;;
62709;SDS011;48770;51.624;5.886;2023-07-22T07:02:18;5.90;;;5.05;;
62709;SDS011;48770;51.624;5.886;2023-07-22T07:04:44;9.90;;;5.70;;
62709;SDS011;48770;51.624;5.886;2023-07-22T07:07:10;6.57;;;5.05;;
62709;SDS011;48770;51.624;5.886;2023-07-22T07:09:36;7.75;;;5.60;;
62709;SDS011;48770;51.624;5.886;2023-07-22T07:12:01;7.22;;;5.38;;
62709;SDS011;48770;51.624;5.886;2023-07-22T07:14:27;6.25;;;5.32;;
62709;SDS011;48770;51.624;5.886;2023-07-22T07:16:53;7.60;;;5.32;;
62709;SDS011;48770;51.624;5.886;2023-07-22T07:19:18;8.55;;;5.30;;
62709;SDS011;48770;51.624;5.886;2023-07-22T07:21:43;5.82;;;5.28;;
62709;SDS011;48770;51.624;5.886;2023-07-22T07:24:09;9.57;;;5.38;;
62709;SDS011;48770;51.624;5.886;2023-07-22T07:26:34;7.55;;;5.45;;
62709;SDS011;48770;51.624;5.886;2023-07-22T07:28:59;8.10;;;5.43;;
62709;SDS011;48770;51.624;5.886;2023-07-22T07:31:25;9.70;;;5.53;;
62709;SDS011;48770;51.624;5.886;2023-07-22T07:33:50;6.47;;;5.03;;
62709;SDS011;48770;51.624;5.886;2023-07-22T07:36:15;9.05;;;5.25;;
62709;SDS011;48770;51.624;5.886;2023-07-22T07:38:41;10.07;;;6.00;;
62709;SDS011;48770;51.624;5.886;2023-07-22T07:41:06;7.13;;;5.40;;
62709;SDS011;48770;51.624;5.886;2023-07-22T07:43:36;8.27;;;5.38;;
62709;SDS011;48770;51.624;5.886;2023-07-22T07:48:51;6.97;;;5.25;;
62709;SDS011;48770;51.624;5.886;2023-07-22T07:51:19;8.10;;;5.82;;
62709;SDS011;48770;51.624;5.886;2023-07-22T07:53:46;7.13;;;5.47;;
62709;SDS011;48770;51.624;5.886;2023-07-22T07:56:13;8.65;;;5.18;;
62709;SDS011;48770;51.624;5.886;2023-07-22T07:58:39;6.72;;;5.22;;
62709;SDS011;48770;51.624;5.886;2023-07-22T08:01:05;6.85;;;5.30;;
62709;SDS011;48770;51.624;5.886;2023-07-22T08:03:30;5.50;;;4.85;;
62709;SDS011;48770;51.624;5.886;2023-07-22T08:05:57;6.78;;;5.57;;
62709;SDS011;48770;51.624;5.886;2023-07-22T08:08:22;6.90;;;4.93;;
62709;SDS011;48770;51.624;5.886;2023-07-22T08:10:56;8.85;;;5.30;;
62709;SDS011;48770;51.624;5.886;2023-07-22T08:13:23;9.23;;;5.32;;
62709;SDS011;48770;51.624;5.886;2023-07-22T08:15:48;8.20;;;5.90;;
62709;SDS011;48770;51.624;5.886;2023-07-22T08:18:13;9.23;;;5.30;;
62709;SDS011;48770;51.624;5.886;2023-07-22T08:20:38;7.82;;;5.68;;
62709;SDS011;48770;51.624;5.886;2023-07-22T08:23:04;6.75;;;4.97;;
62709;SDS011;48770;51.624;5.886;2023-07-22T08:25:29;7.35;;;4.88;;
62709;SDS011;48770;51.624;5.886;2023-07-22T08:27:54;7.53;;;4.88;;
62709;SDS011;48770;51.624;5.886;2023-07-22T08:30:19;8.77;;;5.47;;
62709;SDS011;48770;51.624;5.886;2023-07-22T08:32:45;9.50;;;5.68;;
62709;SDS011;48770;51.624;5.886;2023-07-22T08:35:10;9.60;;;4.87;;
62709;SDS011;48770;51.624;5.886;2023-07-22T08:37:35;6.70;;;5.07;;
62709;SDS011;48770;51.624;5.886;2023-07-22T08:40:02;8.18;;;5.53;;
62709;SDS011;48770;51.624;5.886;2023-07-22T08:42:28;7.32;;;4.90;;
62709;SDS011;48770;51.624;5.886;2023-07-22T08:44:57;8.50;;;5.15;;
62709;SDS011;48770;51.624;5.886;2023-07-22T08:47:26;7.28;;;5.43;;
62709;SDS011;48770;51.624;5.886;2023-07-22T08:49:54;10.07;;;4.90;;
62709;SDS011;48770;51.624;5.886;2023-07-22T08:52:23;9.15;;;4.97;;
62709;SDS011;48770;51.624;5.886;2023-07-22T08:54:49;8.20;;;5.40;;
62709;SDS011;48770;51.624;5.886;2023-07-22T08:57:14;5.88;;;4.40;;
62709;SDS011;48770;51.624;5.886;2023-07-22T08:59:41;9.90;;;4.80;;
62709;SDS011;48770;51.624;5.886;2023-07-22T09:02:08;13.43;;;5.97;;
62709;SDS011;48770;51.624;5.886;2023-07-22T09:04:37;5.82;;;5.05;;
62709;SDS011;48770;51.624;5.886;2023-07-22T09:07:03;6.13;;;4.55;;
62709;SDS011;48770;51.624;5.886;2023-07-22T09:09:29;5.18;;;4.40;;
62709;SDS011;48770;51.624;5.886;2023-07-22T09:11:56;6.18;;;4.30;;
62709;SDS011;48770;51.624;5.886;2023-07-22T09:14:21;9.25;;;4.43;;
62709;SDS011;48770;51.624;5.886;2023-07-22T09:16:47;8.40;;;4.70;;
62709;SDS011;48770;51.624;5.886;2023-07-22T09:19:13;8.20;;;4.97;;
62709;SDS011;48770;51.624;5.886;2023-07-22T09:21:38;7.95;;;5.00;;
62709;SDS011;48770;51.624;5.886;2023-07-22T09:24:19;7.97;;;4.28;;
62709;SDS011;48770;51.624;5.886;2023-07-22T09:26:49;8.00;;;4.20;;
62709;SDS011;48770;51.624;5.886;2023-07-22T09:29:14;5.60;;;3.92;;
62709;SDS011;48770;51.624;5.886;2023-07-22T09:31:50;8.75;;;4.25;;
62709;SDS011;48770;51.624;5.886;2023-07-22T09:34:16;5.60;;;4.25;;
62709;SDS011;48770;51.624;5.886;2023-07-22T09:36:48;6.18;;;4.45;;
62709;SDS011;48770;51.624;5.886;2023-07-22T09:39:17;6.50;;;3.90;;
62709;SDS011;48770;51.624;5.886;2023-07-22T09:41:43;7.63;;;4.32;;
62709;SDS011;48770;51.624;5.886;2023-07-22T09:44:11;7.18;;;3.90;;
62709;SDS011;48770;51.624;5.886;2023-07-22T09:46:37;5.60;;;3.97;;
62709;SDS011;48770;51.624;5.886;2023-07-22T09:49:03;5.25;;;3.65;;
62709;SDS011;48770;51.624;5.886;2023-07-22T09:51:34;4.47;;;3.63;;
62709;SDS011;48770;51.624;5.886;2023-07-22T09:54:01;4.82;;;3.67;;
62709;SDS011;48770;51.624;5.886;2023-07-22T09:56:28;5.07;;;3.47;;
62709;SDS011;48770;51.624;5.886;2023-07-22T09:58:53;6.28;;;3.47;;
62709;SDS011;48770;51.624;5.886;2023-07-22T10:01:20;4.28;;;3.35;;
62709;SDS011;48770;51.624;5.886;2023-07-22T10:03:55;4.38;;;3.55;;
62709;SDS011;48770;51.624;5.886;2023-07-22T10:06:28;4.43;;;3.20;;
62709;SDS011;48770;51.624;5.886;2023-07-22T10:08:56;4.82;;;3.25;;
62709;SDS011;48770;51.624;5.886;2023-07-22T10:11:26;4.60;;;3.40;;
62709;SDS011;48770;51.624;5.886;2023-07-22T10:13:53;7.60;;;3.58;;
62709;SDS011;48770;51.624;5.886;2023-07-22T10:16:20;5.53;;;3.42;;
62709;SDS011;48770;51.624;5.886;2023-07-22T10:18:46;4.55;;;3.40;;
62709;SDS011;48770;51.624;5.886;2023-07-22T10:21:13;5.72;;;3.45;;
62709;SDS011;48770;51.624;5.886;2023-07-22T10:23:39;5.53;;;3.08;;
62709;SDS011;48770;51.624;5.886;2023-07-22T10:26:05;3.33;;;2.95;;
62709;SDS011;48770;51.624;5.886;2023-07-22T10:28:31;4.97;;;3.22;;
62709;SDS011;48770;51.624;5.886;2023-07-22T10:30:57;5.25;;;3.30;;
62709;SDS011;48770;51.624;5.886;2023-07-22T10:33:24;4.65;;;3.17;;
62709;SDS011;48770;51.624;5.886;2023-07-22T10:36:12;4.00;;;2.80;;
62709;SDS011;48770;51.624;5.886;2023-07-22T10:38:40;4.47;;;3.03;;
62709;SDS011;48770;51.624;5.886;2023-07-22T10:41:13;4.40;;;3.03;;
62709;SDS011;48770;51.624;5.886;2023-07-22T10:43:41;3.53;;;2.97;;
62709;SDS011;48770;51.624;5.886;2023-07-22T10:46:12;5.15;;;2.90;;
62709;SDS011;48770;51.624;5.886;2023-07-22T10:48:38;5.00;;;2.85;;
62709;SDS011;48770;51.624;5.886;2023-07-22T10:51:10;5.38;;;2.80;;
62709;SDS011;48770;51.624;5.886;2023-07-22T10:53:40;5.72;;;2.72;;
62709;SDS011;48770;51.624;5.886;2023-07-22T10:58:54;4.43;;;2.57;;
62709;SDS011;48770;51.624;5.886;2023-07-22T11:09:26;4.10;;;2.60;;
62709;SDS011;48770;51.624;5.886;2023-07-22T11:12:04;5.20;;;2.67;;
62709;SDS011;48770;51.624;5.886;2023-07-22T11:14:47;3.63;;;2.47;;
62709;SDS011;48770;51.624;5.886;2023-07-22T11:17:12;5.43;;;2.63;;
62709;SDS011;48770;51.624;5.886;2023-07-22T11:19:39;5.45;;;2.60;;
62709;SDS011;48770;51.624;5.886;2023-07-22T11:22:05;2.92;;;2.42;;
62709;SDS011;48770;51.624;5.886;2023-07-22T11:24:32;3.25;;;1.88;;
62709;SDS011;48770;51.624;5.886;2023-07-22T11:26:59;4.60;;;2.50;;
62709;SDS011;48770;51.624;5.886;2023-07-22T11:29:30;4.38;;;2.50;;
62709;SDS011;48770;51.624;5.886;2023-07-22T11:31:56;4.60;;;2.50;;
62709;SDS011;48770;51.624;5.886;2023-07-22T11:34:22;5.57;;;2.40;;
62709;SDS011;48770;51.624;5.886;2023-07-22T11:36:49;4.15;;;2.67;;
62709;SDS011;48770;51.624;5.886;2023-07-22T11:39:19;4.57;;;2.45;;
62709;SDS011;48770;51.624;5.886;2023-07-22T11:41:46;4.50;;;2.10;;
62709;SDS011;48770;51.624;5.886;2023-07-22T11:44:14;4.20;;;2.47;;
62709;SDS011;48770;51.624;5.886;2023-07-22T11:54:25;2.33;;;1.83;;
62709;SDS011;48770;51.624;5.886;2023-07-22T11:56:50;3.15;;;1.40;;
62709;SDS011;48770;51.624;5.886;2023-07-22T11:59:16;4.00;;;1.52;;
62709;SDS011;48770;51.624;5.886;2023-07-22T12:01:44;2.35;;;1.30;;
62709;SDS011;48770;51.624;5.886;2023-07-22T12:04:11;3.75;;;1.50;;
62709;SDS011;48770;51.624;5.886;2023-07-22T12:06:38;3.22;;;1.67;;
62709;SDS011;48770;51.624;5.886;2023-07-22T12:09:03;3.05;;;1.15;;
62709;SDS011;48770;51.624;5.886;2023-07-22T12:11:31;2.35;;;1.23;;
62709;SDS011;48770;51.624;5.886;2023-07-22T12:14:05;3.78;;;1.38;;
62709;SDS011;48770;51.624;5.886;2023-07-22T12:16:34;4.05;;;2.03;;
62709;SDS011;48770;51.624;5.886;2023-07-22T12:19:01;6.80;;;1.38;;
62709;SDS011;48770;51.624;5.886;2023-07-22T12:21:27;2.15;;;1.30;;
62709;SDS011;48770;51.624;5.886;2023-07-22T12:23:52;3.58;;;1.38;;
62709;SDS011;48770;51.624;5.886;2023-07-22T12:26:18;2.60;;;1.88;;
62709;SDS011;48770;51.624;5.886;2023-07-22T12:28:43;2.80;;;1.10;;
62709;SDS011;48770;51.624;5.886;2023-07-22T12:31:09;2.63;;;1.40;;
62709;SDS011;48770;51.624;5.886;2023-07-22T12:33:34;1.77;;;1.17;;
62709;SDS011;48770;51.624;5.886;2023-07-22T12:35:59;4.78;;;1.35;;
62709;SDS011;48770;51.624;5.886;2023-07-22T12:38:25;1.90;;;1.10;;
62709;SDS011;48770;51.624;5.886;2023-07-22T12:40:50;2.75;;;1.20;;
62709;SDS011;48770;51.624;5.886;2023-07-22T12:43:16;1.90;;;1.20;;
62709;SDS011;48770;51.624;5.886;2023-07-22T12:45:41;3.05;;;1.40;;
62709;SDS011;48770;51.624;5.886;2023-07-22T12:48:06;4.68;;;1.27;;
62709;SDS011;48770;51.624;5.886;2023-07-22T12:50:32;2.28;;;1.30;;
62709;SDS011;48770;51.624;5.886;2023-07-22T12:53:01;3.22;;;1.20;;
62709;SDS011;48770;51.624;5.886;2023-07-22T12:55:28;2.25;;;1.30;;
62709;SDS011;48770;51.624;5.886;2023-07-22T12:57:53;2.28;;;1.27;;
62709;SDS011;48770;51.624;5.886;2023-07-22T13:00:19;2.40;;;1.42;;
62709;SDS011;48770;51.624;5.886;2023-07-22T13:02:44;1.73;;;1.15;;
62709;SDS011;48770;51.624;5.886;2023-07-22T13:05:09;1.40;;;1.30;;
62709;SDS011;48770;51.624;5.886;2023-07-22T13:07:35;4.80;;;1.50;;
62709;SDS011;48770;51.624;5.886;2023-07-22T13:10:00;4.13;;;1.27;;
62709;SDS011;48770;51.624;5.886;2023-07-22T13:12:28;2.70;;;1.38;;
62709;SDS011;48770;51.624;5.886;2023-07-22T13:14:53;1.88;;;1.23;;
62709;SDS011;48770;51.624;5.886;2023-07-22T13:17:19;1.63;;;1.30;;
62709;SDS011;48770;51.624;5.886;2023-07-22T13:19:45;2.03;;;1.20;;
62709;SDS011;48770;51.624;5.886;2023-07-22T13:22:10;4.13;;;1.52;;
62709;SDS011;48770;51.624;5.886;2023-07-22T13:24:36;2.00;;;1.33;;
62709;SDS011;48770;51.624;5.886;2023-07-22T13:27:01;4.78;;;1.23;;
62709;SDS011;48770;51.624;5.886;2023-07-22T13:29:26;1.95;;;1.13;;
62709;SDS011;48770;51.624;5.886;2023-07-22T13:31:52;2.42;;;1.20;;
62709;SDS011;48770;51.624;5.886;2023-07-22T13:34:18;3.65;;;1.20;;
62709;SDS011;48770;51.624;5.886;2023-07-22T13:36:44;2.10;;;1.23;;
62709;SDS011;48770;51.624;5.886;2023-07-22T13:39:09;2.47;;;1.23;;
62709;SDS011;48770;51.624;5.886;2023-07-22T13:41:34;2.63;;;1.15;;
62709;SDS011;48770;51.624;5.886;2023-07-22T13:44:00;2.88;;;1.20;;
62709;SDS011;48770;51.624;5.886;2023-07-22T13:46:25;1.77;;;1.07;;
62709;SDS011;48770;51.624;5.886;2023-07-22T13:48:50;1.55;;;1.30;;
62709;SDS011;48770;51.624;5.886;2023-07-22T13:51:16;1.83;;;1.15;;
62709;SDS011;48770;51.624;5.886;2023-07-22T13:53:41;2.33;;;1.30;;
62709;SDS011;48770;51.624;5.886;2023-07-22T13:56:06;2.00;;;0.97;;
62709;SDS011;48770;51.624;5.886;2023-07-22T13:58:32;1.63;;;1.05;;
62709;SDS011;48770;51.624;5.886;2023-07-22T14:00:57;1.40;;;1.13;;
62709;SDS011;48770;51.624;5.886;2023-07-22T14:03:22;3.67;;;1.10;;
62709;SDS011;48770;51.624;5.886;2023-07-22T14:05:48;2.10;;;1.42;;
62709;SDS011;48770;51.624;5.886;2023-07-22T14:08:13;2.92;;;1.80;;
62709;SDS011;48770;51.624;5.886;2023-07-22T14:10:38;1.90;;;1.38;;
62709;SDS011;48770;51.624;5.886;2023-07-22T14:13:04;0.95;;;0.90;;
62709;SDS011;48770;51.624;5.886;2023-07-22T14:15:29;3.00;;;1.40;;
62709;SDS011;48770;51.624;5.886;2023-07-22T14:17:55;1.73;;;1.05;;
62709;SDS011;48770;51.624;5.886;2023-07-22T14:20:20;1.70;;;1.15;;
62709;SDS011;48770;51.624;5.886;2023-07-22T14:22:47;2.03;;;1.05;;
62709;SDS011;48770;51.624;5.886;2023-07-22T14:25:14;2.92;;;1.40;;
62709;SDS011;48770;51.624;5.886;2023-07-22T14:27:40;4.78;;;1.20;;
62709;SDS011;48770;51.624;5.886;2023-07-22T14:30:06;1.73;;;1.15;;
62709;SDS011;48770;51.624;5.886;2023-07-22T14:32:32;1.58;;;1.10;;
62709;SDS011;48770;51.624;5.886;2023-07-22T14:34:58;1.38;;;1.10;;
62709;SDS011;48770;51.624;5.886;2023-07-22T14:37:23;2.35;;;1.13;;
62709;SDS011;48770;51.624;5.886;2023-07-22T14:39:49;1.77;;;1.10;;
62709;SDS011;48770;51.624;5.886;2023-07-22T14:42:14;4.70;;;1.30;;
62709;SDS011;48770;51.624;5.886;2023-07-22T14:44:40;1.65;;;1.08;;
62709;SDS011;48770;51.624;5.886;2023-07-22T14:47:05;1.65;;;0.98;;
62709;SDS011;48770;51.624;5.886;2023-07-22T14:49:30;1.35;;;1.00;;
62709;SDS011;48770;51.624;5.886;2023-07-22T14:51:56;2.10;;;1.10;;
62709;SDS011;48770;51.624;5.886;2023-07-22T14:54:21;2.30;;;0.80;;
62709;SDS011;48770;51.624;5.886;2023-07-22T14:56:47;1.13;;;0.70;;
62709;SDS011;48770;51.624;5.886;2023-07-22T14:59:13;1.38;;;0.90;;
62709;SDS011;48770;51.624;5.886;2023-07-22T15:01:40;1.52;;;1.02;;
62709;SDS011;48770;51.624;5.886;2023-07-22T15:04:06;1.80;;;1.23;;